Flight Track Log - Related Links

Times and Time Zones

All times are in EST time to prevent confusion due to time zone crossing. See the AMF1324 flight status page for this flight to view local times or setup timezone preferences in your user account.

Time Position Orientation Groundspeed Altitude Reporting Facility
EST Latitude Longitude Course Direction KTS MPH feet Rate Location/Type
Tue 06:23:18 AM 42.9333 -78.7500 180° South 140 161 1,500  Level Buffalo TRACON
Tue 06:23:36 AM 42.9167 -78.7500 180° South 149 171 2,200 1,912 Climbing Buffalo TRACON
Tue 06:24:49 AM 42.8725 -78.7186 152° Southeast 209 241 4,400 1,701 Climbing Cleveland Center
Tue 06:25:50 AM 42.8706 -78.6422 92° East 206 237 6,000 1,475 Climbing Cleveland Center
Tue 06:26:51 AM 42.8661 -78.5550 94° East 220 253 7,400 1,328 Climbing Cleveland Center
Tue 06:27:52 AM 42.8656 -78.4739 91° East 223 257 8,700 1,131 Climbing Cleveland Center
Tue 06:28:53 AM 42.8647 -78.3878 91° East 221 254 9,700 885 Climbing Cleveland Center
Tue 06:29:54 AM 42.8600 -78.3047 94° East 233 268 10,500 885 Climbing Cleveland Center
Tue 06:30:55 AM 42.8550 -78.2150 94° East 237 273 11,500 885 Climbing Cleveland Center
Tue 06:31:56 AM 42.8539 -78.1247 91° East 239 275 12,300 738 Climbing Cleveland Center
Tue 06:32:57 AM 42.8503 -78.0317 93° East 246 283 13,000 344 Climbing Cleveland Center
Tue 06:33:58 AM 42.8439 -77.9317 95° East 264 304 13,000  Level Cleveland Center
Tue 06:34:59 AM 42.8369 -77.8269 95° East 276 318 13,000  Level Cleveland Center
Tue 06:36:00 AM 42.8294 -77.7261 96° East 269 310 13,000  Level Cleveland Center
Tue 06:37:01 AM 42.8047 -77.6353 110° East 255 293 13,000  Level Cleveland Center
Tue 06:38:02 AM 42.7694 -77.5514 120° Southeast 252 290 13,000  Level Cleveland Center
Tue 06:39:04 AM 42.7222 -77.4539 123° Southeast 254 292 13,000  Level Cleveland Center
Tue 06:40:05 AM 42.6828 -77.3736 124° Southeast 253 291 13,000  Level Cleveland Center
Tue 06:41:06 AM 42.6444 -77.2936 123° Southeast 252 290 13,000  Level Cleveland Center
Tue 06:42:07 AM 42.6061 -77.2106 122° Southeast 257 296 13,000  Level Cleveland Center
Tue 06:43:09 AM 42.5694 -77.1286 121° Southeast 255 293 13,000 49 Level Cleveland Center
Tue 06:44:10 AM 42.5339 -77.0447 120° Southeast 255 293 13,100 49 Climbing Cleveland Center
Tue 06:45:11 AM 42.4989 -76.9608 119° Southeast 256 295 13,100  Level Cleveland Center
Tue 06:46:13 AM 42.4669 -76.8739 116° Southeast 257 296 13,100  Level Cleveland Center
Tue 06:47:07 AM 42.4417 -76.7806 110° East 260 299 13,100 -105 Level New York Center
Tue 06:48:07 AM 42.4172 -76.6856 109° East 254 292 12,900 -750 Descending New York Center
Tue 06:49:07 AM 42.3825 -76.5897 116° Southeast 266 306 11,600 -1,250 Descending New York Center
Tue 06:50:07 AM 42.3542 -76.4892 111° Southeast 278 320 10,400 -1,364 Descending New York Center
Tue 06:51:19 AM 42.3311 -76.3642 104° East 288 331 8,600 -1,500 Descending Cleveland Center
Tue 06:52:07 AM 42.3139 -76.2808 106° East 278 320 7,400 -1,389 Descending New York Center
Tue 06:53:07 AM 42.2931 -76.1894 107° East 283 326 6,100 -1,140 Descending New York Center
Tue 06:54:08 AM 42.2767 -76.0956 103° East 283 326 5,100 -1,100 Descending New York Center
Tue 06:55:07 AM 42.2611 -76.0242 106° East 241 277 3,900 -1,261 Descending New York Center
Tue 06:56:07 AM 42.2319 -75.9744 128° Southeast 182 209 2,600 -1,300 Descending New York Center

Login

Don't have an account? Register now (free) for customized features, flight alerts, and more!